Time;durP1;ratioP1;P1;durP2;ratioP2;P2;SDS_P1;SDS_P2;PMS_P1;PMS_P2;Temp;Humidity;BMP_temperature;BMP_pressure;BME280_temperature;BME280_humidity;BME280_pressure;Samples;Min_cycle;Max_cycle;Signal;HPM_P1;HPM_P2
2022/04/09 00:02:07;;;;;;;0.30;0.30;;;;;;;-145.69;100.00;71625.25;5053156;28;20203;-74
2022/04/09 00:04:33;;;;;;;0.43;0.43;;;;;;;-145.69;100.00;71621.28;5053068;28;20203;-74
2022/04/09 00:07:00;;;;;;;0.43;0.43;;;;;;;-145.69;100.00;71635.22;5053094;28;20655;-74
2022/04/09 00:09:26;;;;;;;0.60;0.60;;;;;;;-145.69;100.00;71653.13;5053266;28;20218;-74
2022/04/09 00:11:54;;;;;;;0.50;0.40;;;;;;;-145.69;100.00;71657.09;5053219;28;20206;-73
2022/04/09 00:14:21;;;;;;;0.60;0.60;;;;;;;-145.69;100.00;71677.00;5052905;28;20227;-73
2022/04/09 00:16:47;;;;;;;0.57;0.57;;;;;;;-145.69;100.00;71692.94;5065071;28;20222;-74
2022/04/09 00:19:14;;;;;;;0.60;0.60;;;;;;;-145.69;100.00;71706.84;5072209;28;20194;-73
2022/04/09 00:21:40;;;;;;;0.53;0.53;;;;;;;-145.69;100.00;71704.88;5073240;28;20604;-73
2022/04/09 00:24:07;;;;;;;0.60;0.60;;;;;;;-145.69;100.00;71718.78;5073061;28;20230;-73
2022/04/09 00:26:33;;;;;;;0.70;0.70;;;;;;;-145.69;100.00;71728.75;5073097;28;20226;-73
2022/04/09 00:29:01;;;;;;;1.37;0.70;;;;;;;-145.69;100.00;71732.72;5072878;28;20203;-73
2022/04/09 00:31:27;;;;;;;0.50;0.50;;;;;;;-145.69;100.00;71736.72;5072847;28;20329;-74
2022/04/09 00:33:54;;;;;;;0.60;0.60;;;;;;;-145.69;100.00;71742.69;5073069;28;20206;-75
2022/04/09 00:36:20;;;;;;;0.70;0.70;;;;;;;-145.69;100.00;71764.56;5072972;28;20210;-74
2022/04/09 00:38:46;;;;;;;0.77;0.70;;;;;;;-145.69;100.00;71772.53;5072747;28;20700;-74
2022/04/09 00:41:13;;;;;;;0.77;0.77;;;;;;;-145.69;100.00;71768.53;5073080;28;20202;-74
2022/04/09 00:43:40;;;;;;;0.60;0.60;;;;;;;-145.69;100.00;71790.44;5071690;28;20453;-74
2022/04/09 00:46:08;;;;;;;0.70;0.70;;;;;;;-145.69;100.00;71780.50;5072347;28;20281;-74
2022/04/09 00:48:35;;;;;;;0.80;0.80;;;;;;;-145.69;100.00;71786.47;5072745;28;20234;-74
2022/04/09 00:51:02;;;;;;;0.70;0.70;;;;;;;-145.69;100.00;71794.41;5072623;28;20700;-73
2022/04/09 00:53:34;;;;;;;0.57;0.57;;;;;;;-145.69;100.00;71796.41;5072746;28;20198;-74
2022/04/09 00:56:15;;;;;;;0.60;0.60;;;;;;;-145.69;100.00;71810.34;5072783;28;20206;-74
2022/04/09 00:58:47;;;;;;;0.60;0.60;;;;;;;-145.69;100.00;71828.25;5072577;28;20290;-74
2022/04/09 01:01:16;;;;;;;0.60;0.60;;;;;;;-145.69;100.00;71832.22;5072767;28;20241;-74
2022/04/09 01:03:43;;;;;;;0.60;0.60;;;;;;;-145.69;100.00;71840.19;5072795;28;20238;-74
2022/04/09 01:06:12;;;;;;;0.80;0.80;;;;;;;-145.69;100.00;71848.16;5076630;28;20198;-74
2022/04/09 01:08:38;;;;;;;0.70;0.70;;;;;;;-145.69;100.00;71842.19;5076578;28;20203;-74
2022/04/09 01:11:05;;;;;;;0.70;0.70;;;;;;;-145.69;100.00;71854.13;5076428;28;20225;-74
2022/04/09 01:13:32;;;;;;;0.87;0.87;;;;;;;-145.69;100.00;71876.00;5076590;28;20326;-74
2022/04/09 01:15:58;;;;;;;0.87;0.80;;;;;;;-145.69;100.00;71895.91;5076384;28;20187;-74
2022/04/09 01:18:26;;;;;;;1.10;1.00;;;;;;;-145.69;100.00;71895.91;5076298;28;20669;-75
2022/04/09 01:20:52;;;;;;;0.70;0.70;;;;;;;-145.69;100.00;71899.88;5075905;28;20198;-74
2022/04/09 01:23:20;;;;;;;1.47;1.10;;;;;;;-145.69;100.00;71893.91;5075873;28;20234;-74
2022/04/09 01:25:46;;;;;;;1.60;1.00;;;;;;;-145.69;100.00;71891.94;5075978;28;20202;-74
2022/04/09 01:28:13;;;;;;;1.07;1.03;;;;;;;-145.69;100.00;71895.91;5076297;28;20260;-74
2022/04/09 01:30:41;;;;;;;1.60;1.50;;;;;;;-145.69;100.00;71919.78;5076232;28;20226;-75
2022/04/09 01:33:07;;;;;;;1.00;1.00;;;;;;;-145.69;100.00;71917.81;5076070;28;20211;-74
2022/04/09 01:35:34;;;;;;;1.30;1.20;;;;;;;-145.69;100.00;71925.75;5076041;28;20199;-74
2022/04/09 01:38:00;;;;;;;1.50;1.40;;;;;;;-145.69;100.00;71927.75;5075904;28;20202;-74
2022/04/09 01:40:28;;;;;;;1.87;1.60;;;;;;;-145.69;100.00;71937.69;5075500;28;20206;-74
2022/04/09 01:42:54;;;;;;;1.40;1.30;;;;;;;-145.69;100.00;71951.63;5074207;28;20237;-74
2022/04/09 01:45:21;;;;;;;1.73;1.57;;;;;;;-145.69;100.00;71957.59;5056014;28;20582;-75
2022/04/09 01:47:47;;;;;;;2.37;1.57;;;;;;;-145.69;100.00;71963.56;5055873;28;20198;-75
2022/04/09 01:50:13;;;;;;;1.43;1.33;;;;;;;-145.69;100.00;71981.50;5055733;28;20200;-74
2022/04/09 01:52:40;;;;;;;2.30;1.80;;;;;;;-145.69;100.00;71971.53;5055679;28;20539;-74
2022/04/09 01:55:08;;;;;;;2.47;1.80;;;;;;;-145.69;100.00;71973.53;5055890;28;20427;-74
2022/04/09 01:57:35;;;;;;;2.03;1.63;;;;;;;-145.69;100.00;71979.50;5055784;28;20195;-75
2022/04/09 02:00:02;;;;;;;2.13;1.53;;;;;;;-145.69;100.00;71997.41;5055595;28;20616;-74
2022/04/09 02:02:29;;;;;;;1.50;1.40;;;;;;;-145.69;100.00;72015.31;5055580;28;20250;-74
2022/04/09 02:04:55;;;;;;;2.13;1.40;;;;;;;-145.69;100.00;72013.31;5055423;28;20238;-74
2022/04/09 02:07:22;;;;;;;1.60;1.43;;;;;;;-145.69;100.00;72031.25;5055304;28;20196;-74
2022/04/09 02:09:49;;;;;;;2.60;1.50;;;;;;;-145.69;100.00;72039.19;5066032;28;20203;-75
2022/04/09 02:12:15;;;;;;;1.30;1.17;;;;;;;-145.69;100.00;72039.19;5075395;28;20195;-74
2022/04/09 02:14:43;;;;;;;1.30;1.20;;;;;;;-145.69;100.00;72043.19;5074978;28;20288;-74
2022/04/09 02:17:10;;;;;;;2.63;1.30;;;;;;;-145.69;100.00;72045.16;5074358;28;20202;-75
2022/04/09 02:19:36;;;;;;;1.47;1.30;;;;;;;-145.69;100.00;72063.09;5075231;28;20203;-75
2022/04/09 02:22:03;;;;;;;1.77;1.30;;;;;;;-145.69;100.00;72079.00;5075008;28;20248;-74
2022/04/09 02:24:30;;;;;;;1.77;1.40;;;;;;;-145.69;100.00;72082.97;5075251;28;20237;-75
2022/04/09 02:26:56;;;;;;;1.70;1.40;;;;;;;-145.69;100.00;72090.94;5075143;28;20206;-74
2022/04/09 02:29:23;;;;;;;4.30;1.50;;;;;;;-145.69;100.00;72098.91;5075103;28;20206;-74
2022/04/09 02:31:51;;;;;;;1.40;1.30;;;;;;;-145.69;100.00;72098.91;5074696;28;20199;-74
2022/04/09 02:34:17;;;;;;;2.63;1.43;;;;;;;-145.69;100.00;72112.84;5074857;28;20206;-75
2022/04/09 02:36:44;;;;;;;1.80;1.30;;;;;;;-145.69;100.00;72118.81;5074757;28;20203;-75
2022/04/09 02:39:11;;;;;;;1.53;1.43;;;;;;;-145.69;100.00;72122.78;5074959;28;20207;-74
2022/04/09 02:41:37;;;;;;;2.33;1.37;;;;;;;-145.69;100.00;72130.75;5074995;28;20206;-74
2022/04/09 02:44:04;;;;;;;2.57;1.47;;;;;;;-145.69;100.00;72130.75;5074813;28;20632;-74
2022/04/09 02:46:30;;;;;;;3.60;1.57;;;;;;;-145.69;100.00;72138.72;5074735;28;20249;-74
2022/04/09 02:48:58;;;;;;;1.67;1.33;;;;;;;-145.69;100.00;72138.72;5074637;28;20592;-75
2022/04/09 02:51:24;;;;;;;2.83;1.40;;;;;;;-145.69;100.00;72138.72;5074798;28;20202;-75
2022/04/09 02:53:51;;;;;;;2.93;1.63;;;;;;;-145.69;100.00;72144.69;5074779;28;20210;-74
2022/04/09 02:56:17;;;;;;;2.83;1.90;;;;;;;-145.69;100.00;72146.69;5074601;28;20281;-74
2022/04/09 02:58:44;;;;;;;2.23;1.60;;;;;;;-145.69;100.00;72148.66;5074471;28;20206;-74
2022/04/09 03:01:11;;;;;;;2.50;1.70;;;;;;;-145.69;100.00;72160.59;5074179;28;20584;-75
2022/04/09 03:03:37;;;;;;;3.70;1.83;;;;;;;-145.69;100.00;72164.59;5074160;28;20222;-75
2022/04/09 03:06:05;;;;;;;1.90;1.63;;;;;;;-145.69;100.00;72170.56;5074765;28;20195;-75
2022/04/09 03:08:32;;;;;;;2.47;1.67;;;;;;;-145.69;100.00;72174.53;5074484;28;20210;-75
2022/04/09 03:10:58;;;;;;;3.83;1.70;;;;;;;-145.69;100.00;72172.53;5074233;28;20209;-75
2022/04/09 03:13:24;;;;;;;2.03;1.57;;;;;;;-145.69;100.00;72178.53;5074011;28;20203;-75
2022/04/09 03:15:51;;;;;;;2.87;2.20;;;;;;;-145.69;100.00;72174.53;5073889;28;20198;-75
2022/04/09 03:18:17;;;;;;;3.97;2.00;;;;;;;-145.69;100.00;72178.53;5074081;28;20198;-75
2022/04/09 03:20:44;;;;;;;3.43;2.23;;;;;;;-145.69;100.00;72184.50;5073913;28;20207;-75
2022/04/09 03:23:12;;;;;;;4.23;2.03;;;;;;;-145.69;100.00;72174.53;5074022;28;20277;-75
2022/04/09 03:25:38;;;;;;;3.07;2.17;;;;;;;-145.69;100.00;72190.47;5073939;28;20232;-75
2022/04/09 03:28:05;;;;;;;7.70;2.30;;;;;;;-145.69;100.00;72196.44;5074161;28;20248;-75
2022/04/09 03:30:31;;;;;;;4.37;1.83;;;;;;;-145.69;100.00;72194.44;5073930;28;20658;-75
2022/04/09 03:32:58;;;;;;;4.27;2.10;;;;;;;-145.69;100.00;72196.44;5073844;28;20665;-75
2022/04/09 03:35:24;;;;;;;5.17;2.43;;;;;;;-145.69;100.00;72200.41;5063711;28;20678;-76
2022/04/09 03:37:51;;;;;;;4.60;2.70;;;;;;;-145.69;100.00;72198.41;5053812;28;20277;-76
2022/04/09 03:40:22;;;;;;;2.70;2.03;;;;;;;-145.69;100.00;72198.41;5053804;28;20204;-75
2022/04/09 03:42:48;;;;;;;3.90;2.70;;;;;;;-145.69;100.00;72206.38;5053657;28;20203;-75
2022/04/09 03:45:14;;;;;;;3.90;2.27;;;;;;;-145.69;100.00;72206.38;5053411;28;20238;-75
2022/04/09 03:47:44;;;;;;;6.43;3.40;;;;;;;-145.69;100.00;72212.34;5053487;28;20204;-75
2022/04/09 03:50:12;;;;;;;5.77;3.20;;;;;;;-145.69;100.00;72212.34;5053302;28;20245;-75
2022/04/09 03:52:39;;;;;;;6.00;3.20;;;;;;;-145.69;100.00;72218.31;5053537;28;20207;-75
2022/04/09 03:55:07;;;;;;;5.37;3.33;;;;;;;-145.69;100.00;72218.31;5053401;28;20207;-75
2022/04/09 03:57:38;;;;;;;6.53;3.67;;;;;;;-145.69;100.00;72226.28;5053512;28;20207;-75
2022/04/09 04:00:08;;;;;;;7.13;3.60;;;;;;;-145.69;100.00;72222.31;5063768;28;20298;-75
2022/04/09 04:02:35;;;;;;;7.40;3.60;;;;;;;-145.69;100.00;72222.31;5072741;28;20202;-75
2022/04/09 04:05:03;;;;;;;7.60;3.70;;;;;;;-145.69;100.00;72224.28;5073146;28;20233;-75
2022/04/09 04:07:35;;;;;;;5.10;3.37;;;;;;;-145.69;100.00;72234.25;5073117;28;20690;-76
2022/04/09 04:10:06;;;;;;;5.03;3.43;;;;;;;-145.69;100.00;72230.25;5073109;28;20206;-75
2022/04/09 04:12:36;;;;;;;6.87;3.37;;;;;;;-145.69;100.00;72238.22;5073123;28;20241;-75
2022/04/09 04:15:10;;;;;;;7.40;4.23;;;;;;;-145.69;100.00;72246.19;5073044;28;20245;-75
2022/04/09 04:17:43;;;;;;;5.93;3.80;;;;;;;-145.69;100.00;72252.16;5072830;28;20195;-75
2022/04/09 04:20:14;;;;;;;5.63;3.70;;;;;;;-145.69;100.00;72258.13;5073052;28;20221;-75
2022/04/09 04:22:43;;;;;;;4.70;3.00;;;;;;;-145.69;100.00;72262.09;5073026;28;20206;-75
2022/04/09 04:25:10;;;;;;;6.00;3.67;;;;;;;-145.69;100.00;72266.09;5072889;28;20245;-75
2022/04/09 04:27:49;;;;;;;4.67;3.27;;;;;;;-145.69;100.00;72276.03;5073034;28;20203;-76
2022/04/09 04:30:19;;;;;;;6.03;3.03;;;;;;;-145.69;100.00;72274.06;5072862;28;20226;-76
2022/04/09 04:32:53;;;;;;;5.37;2.50;;;;;;;-145.69;100.00;72293.94;5072900;28;20245;-75
2022/04/09 04:35:20;;;;;;;4.00;2.90;;;;;;;-145.69;100.00;72293.94;5072739;28;20209;-75
2022/04/09 04:37:48;;;;;;;5.17;3.37;;;;;;;-145.69;100.00;72295.94;5072909;28;20259;-75
2022/04/09 04:40:15;;;;;;;4.17;2.67;;;;;;;-145.69;100.00;72301.91;5072089;28;20198;-75
2022/04/09 04:42:45;;;;;;;5.33;3.30;;;;;;;-145.69;100.00;72307.88;5072759;28;20202;-75
2022/04/09 04:45:12;;;;;;;5.07;3.50;;;;;;;-145.69;100.00;72315.84;5072629;28;20230;-75
2022/04/09 04:47:46;;;;;;;5.87;3.60;;;;;;;-145.69;100.00;72323.81;5072675;28;20198;-75
2022/04/09 04:50:15;;;;;;;5.83;3.93;;;;;;;-145.69;100.00;72325.81;5072789;28;20207;-75
2022/04/09 04:52:44;;;;;;;7.27;4.20;;;;;;;-145.69;100.00;72329.78;5072817;28;20203;-75
2022/04/09 04:55:11;;;;;;;6.33;3.83;;;;;;;-145.69;100.00;72337.75;5072624;28;20653;-75
2022/04/09 04:57:44;;;;;;;6.67;3.57;;;;;;;-145.69;100.00;72343.72;5072735;28;20198;-75
2022/04/09 05:00:12;;;;;;;7.27;3.73;;;;;;;-145.69;100.00;72343.72;5072204;28;20199;-75
2022/04/09 05:02:38;;;;;;;7.20;3.80;;;;;;;-145.69;100.00;72339.72;5072297;28;20205;-75
2022/04/09 05:05:06;;;;;;;8.73;3.70;;;;;;;-145.69;100.00;72347.69;5072541;28;20233;-75
2022/04/09 05:07:40;;;;;;;8.67;4.40;;;;;;;-145.69;100.00;72357.66;5072362;28;20203;-75
2022/04/09 05:10:10;;;;;;;9.33;4.27;;;;;;;-145.69;100.00;72357.66;5072468;28;20241;-76
2022/04/09 05:12:37;;;;;;;12.53;6.00;;;;;;;-145.69;100.00;72365.59;5072483;28;20253;-75
2022/04/09 05:15:07;;;;;;;12.30;5.37;;;;;;;-145.69;100.00;72363.63;5072311;28;20757;-75
2022/04/09 05:17:34;;;;;;;13.60;6.07;;;;;;;-145.69;100.00;72369.59;5072390;28;20256;-75
2022/04/09 05:20:01;;;;;;;11.27;6.87;;;;;;;-145.69;100.00;72373.56;5072478;28;20206;-75
2022/04/09 05:22:28;;;;;;;13.57;6.67;;;;;;;-145.69;100.00;72369.59;5072472;28;20201;-75
2022/04/09 05:24:57;;;;;;;16.87;7.37;;;;;;;-145.69;100.00;72373.56;5072370;28;20233;-76
2022/04/09 05:27:24;;;;;;;13.83;7.43;;;;;;;-145.69;100.00;72381.53;5060987;28;20206;-75
2022/04/09 05:29:51;;;;;;;17.00;8.20;;;;;;;-145.69;100.00;72393.47;5062834;28;20218;-75
2022/04/09 05:32:19;;;;;;;17.90;8.60;;;;;;;-145.69;100.00;72389.50;5072465;28;20202;-75
2022/04/09 05:34:46;;;;;;;21.83;11.40;;;;;;;-145.69;100.00;72395.47;5071107;28;20431;-75
2022/04/09 05:37:12;;;;;;;18.57;10.10;;;;;;;-145.69;100.00;72389.50;5072369;28;20206;-75
2022/04/09 05:39:42;;;;;;;21.03;8.43;;;;;;;-145.69;100.00;72395.47;5071762;28;20199;-75
2022/04/09 05:42:09;;;;;;;22.60;9.43;;;;;;;-145.69;100.00;72391.47;5072153;28;20195;-75
2022/04/09 05:44:35;;;;;;;19.33;8.50;;;;;;;-145.69;100.00;72391.47;5072246;28;20234;-75
2022/04/09 05:47:02;;;;;;;17.13;8.33;;;;;;;-145.69;100.00;72383.53;5072288;28;20199;-75
2022/04/09 05:49:30;;;;;;;18.83;8.53;;;;;;;-145.69;100.00;72391.47;5072234;28;20221;-75
2022/04/09 05:51:57;;;;;;;18.83;9.43;;;;;;;-145.69;100.00;72391.47;5073880;28;20222;-74
2022/04/09 05:54:23;;;;;;;18.30;8.50;;;;;;;-145.69;100.00;72403.41;5075906;28;20245;-74
2022/04/09 05:56:52;;;;;;;15.80;8.40;;;;;;;-145.69;100.00;72413.38;5075748;28;20207;-75
2022/04/09 05:59:19;;;;;;;19.97;8.87;;;;;;;-145.69;100.00;72433.28;5075333;28;20658;-74
2022/04/09 06:01:47;;;;;;;20.27;9.00;;;;;;;-145.69;100.00;72427.31;5075524;28;20199;-74
2022/04/09 06:04:19;;;;;;;18.53;9.90;;;;;;;-145.69;100.00;72435.28;5075528;28;20223;-75
2022/04/09 06:06:47;;;;;;;24.00;10.93;;;;;;;-145.69;100.00;72437.25;5075353;28;20203;-75
2022/04/09 06:09:13;;;;;;;24.73;11.70;;;;;;;-145.69;100.00;72429.28;5075480;28;20195;-75
2022/04/09 06:11:41;;;;;;;23.43;10.87;;;;;;;-145.69;100.00;72417.34;5074970;28;20202;-75
2022/04/09 06:14:08;;;;;;;23.27;10.10;;;;;;;-145.69;100.00;72417.34;5075105;28;20235;-75
2022/04/09 06:16:35;;;;;;;20.20;10.07;;;;;;;-145.69;100.00;72421.34;5075149;28;20661;-75
2022/04/09 06:19:02;;;;;;;18.03;9.57;;;;;;;-145.69;100.00;72429.28;5075164;28;20199;-75
2022/04/09 06:21:29;;;;;;;23.27;10.07;;;;;;;-145.69;100.00;72449.19;5075130;28;20657;-75
2022/04/09 06:23:57;;;;;;;19.50;9.80;;;;;;;-145.69;100.00;72449.19;5075237;28;20256;-75
2022/04/09 06:26:23;;;;;;;19.13;10.07;;;;;;;-145.69;100.00;72453.19;5075241;28;20203;-75
2022/04/09 06:28:50;;;;;;;20.67;9.43;;;;;;;-145.69;100.00;72453.19;5074847;28;20195;-75
2022/04/09 06:31:16;;;;;;;21.27;9.50;;;;;;;-145.69;100.00;72451.19;5074749;28;20202;-75
2022/04/09 06:33:43;;;;;;;17.90;9.23;;;;;;;-145.69;100.00;72459.16;5074969;28;20198;-75
2022/04/09 06:36:09;;;;;;;20.97;9.73;;;;;;;-145.69;100.00;72449.19;5074705;28;20361;-75
2022/04/09 06:38:36;;;;;;;18.97;9.20;;;;;;;-145.69;100.00;72455.16;5075074;28;20195;-75
2022/04/09 06:41:04;;;;;;;18.30;8.83;;;;;;;-145.69;100.00;72453.19;5074590;28;20646;-75
2022/04/09 06:43:33;;;;;;;25.50;13.17;;;;;;;-145.69;100.00;72457.16;5074890;28;20202;-75
2022/04/09 06:45:59;;;;;;;18.10;8.60;;;;;;;-145.69;100.00;72441.25;5074551;28;20700;-75
2022/04/09 06:48:26;;;;;;;19.60;9.77;;;;;;;-145.69;100.00;72441.25;5074718;28;20203;-75
2022/04/09 06:50:53;;;;;;;17.90;8.87;;;;;;;-145.69;100.00;72429.28;5074588;28;20293;-74
2022/04/09 06:53:19;;;;;;;17.00;8.80;;;;;;;-145.69;100.00;72437.25;5074793;28;20202;-74
2022/04/09 06:55:46;;;;;;;23.10;7.97;;;;;;;-145.69;100.00;72437.25;5074607;28;20203;-74
2022/04/09 06:58:13;;;;;;;17.47;8.93;;;;;;;-145.69;100.00;72429.28;5074622;28;20206;-74
2022/04/09 07:00:40;;;;;;;12.07;7.53;;;;;;;-145.69;100.00;72429.28;5074314;28;20199;-75
2022/04/09 07:03:10;;;;;;;15.33;8.43;;;;;;;-145.69;100.00;72449.19;5073883;28;20207;-74
2022/04/09 07:05:37;;;;;;;16.13;9.27;;;;;;;-145.69;100.00;72457.16;5074461;28;20234;-74
2022/04/09 07:08:06;;;;;;;15.07;8.27;;;;;;;-145.69;100.00;72429.28;5074398;28;20209;-74
2022/04/09 07:10:37;;;;;;;20.20;8.13;;;;;;;-145.69;100.00;72389.50;5074268;28;20202;-74
2022/04/09 07:13:04;;;;;;;16.33;7.93;;;;;;;-145.69;100.00;72405.41;5074284;28;20206;-74
2022/04/09 07:15:32;;;;;;;12.97;7.67;;;;;;;-145.69;100.00;72399.44;5073966;28;20624;-74
2022/04/09 07:17:58;;;;;;;15.87;7.20;;;;;;;-145.69;100.00;72381.53;5073903;28;20241;-74
2022/04/09 07:20:25;;;;;;;11.27;6.83;;;;;;;-145.69;100.00;72361.63;5074164;28;20207;-74
2022/04/09 07:22:51;;;;;;;11.80;7.30;;;;;;;-145.69;100.00;72343.72;5074225;28;20206;-74
2022/04/09 07:25:18;;;;;;;14.80;7.30;;;;;;;-145.69;100.00;72377.53;5073909;28;20233;-74
2022/04/09 07:27:45;;;;;;;17.57;8.40;;;;;;;-145.69;100.00;72375.56;5073942;28;20641;-74
2022/04/09 07:30:14;;;;;;;17.63;8.23;;;;;;;-145.69;100.00;72409.38;5073498;28;20289;-74
2022/04/09 07:32:42;;;;;;;20.63;8.93;;;;;;;-145.69;100.00;72395.47;5073897;28;20202;-74
2022/04/09 07:35:10;;;;;;;17.43;7.97;;;;;;;-145.69;100.00;72395.47;5067576;28;20207;-74
2022/04/09 07:37:40;;;;;;;14.50;7.23;;;;;;;-145.69;100.00;72405.41;5053795;28;20227;-75
2022/04/09 07:40:08;;;;;;;14.33;7.07;;;;;;;-145.69;100.00;72389.50;5060590;28;20281;-74
2022/04/09 07:42:34;;;;;;;10.77;6.23;;;;;;;-145.69;100.00;72381.53;5073799;28;20202;-75
2022/04/09 07:45:01;;;;;;;14.33;7.20;;;;;;;-145.69;100.00;72393.47;5073770;28;20223;-74
2022/04/09 07:47:27;;;;;;;13.90;6.33;;;;;;;-145.69;100.00;72405.41;5073586;28;20653;-74
2022/04/09 07:49:55;;;;;;;15.40;6.67;;;;;;;-145.69;100.00;72391.47;5073547;28;20217;-74
2022/04/09 07:52:22;;;;;;;8.93;5.77;;;;;;;-145.69;100.00;72389.50;5069960;28;20208;-75
2022/04/09 07:54:48;;;;;;;13.00;6.87;;;;;;;-145.69;100.00;72371.56;5073240;28;20680;-74
2022/04/09 07:57:15;;;;;;;12.33;6.00;;;;;;;-145.69;100.00;72373.56;5073149;28;20210;-75
2022/04/09 07:59:41;;;;;;;14.07;5.77;;;;;;;-145.69;100.00;72391.47;5072778;28;20203;-74
2022/04/09 08:02:08;;;;;;;10.37;6.17;;;;;;;-145.69;100.00;72321.81;5073463;28;20210;-75
2022/04/09 08:04:34;;;;;;;8.43;5.70;;;;;;;-145.69;100.00;72262.09;5073141;28;20202;-77
2022/04/09 08:07:02;;;;;;;11.53;5.63;;;;;;;-145.69;100.00;72250.16;5073477;28;20306;-75
2022/04/09 08:09:29;;;;;;;13.87;6.17;;;;;;;-145.69;100.00;72250.16;5073150;28;20195;-76
2022/04/09 08:11:55;;;;;;;9.67;5.30;;;;;;;-145.69;100.00;72234.25;5073104;28;20202;-76
2022/04/09 08:14:22;;;;;;;7.40;4.60;;;;;;;-145.69;100.00;72188.47;5072281;28;20272;-75
2022/04/09 08:16:48;;;;;;;8.70;5.10;;;;;;;-145.69;100.00;72186.47;5073117;28;20203;-75
2022/04/09 08:19:15;;;;;;;9.13;4.83;;;;;;;-145.69;100.00;72190.47;5073005;28;20247;-75
2022/04/09 08:21:41;;;;;;;8.20;4.70;;;;;;;-145.69;100.00;72164.59;5072840;28;20232;-74
2022/04/09 08:24:11;;;;;;;8.07;4.13;;;;;;;-145.69;100.00;72238.22;5072875;28;20811;-74
2022/04/09 08:26:37;;;;;;;9.43;4.23;;;;;;;-145.69;100.00;72254.16;5072758;28;20227;-75
2022/04/09 08:29:05;;;;;;;8.80;4.90;;;;;;;-145.69;100.00;72238.22;5072846;28;20199;-74
2022/04/09 08:31:32;;;;;;;12.70;4.87;;;;;;;-145.69;100.00;72248.19;5072958;28;20199;-74
2022/04/09 08:33:58;;;;;;;10.63;4.90;;;;;;;-145.69;100.00;72270.06;5072264;28;20191;-74
2022/04/09 08:36:25;;;;;;;14.23;5.23;;;;;;;-145.69;100.00;72297.94;5052839;28;20207;-74
2022/04/09 08:38:52;;;;;;;11.30;5.20;;;;;;;-145.69;100.00;72313.84;5052500;28;20677;-74
2022/04/09 08:41:20;;;;;;;13.13;5.73;;;;;;;-145.69;100.00;72309.88;5052897;28;20199;-74
2022/04/09 08:43:46;;;;;;;10.50;4.93;;;;;;;-145.69;100.00;72289.97;5052596;28;20571;-74
2022/04/09 08:46:13;;;;;;;9.80;4.70;;;;;;;-145.69;100.00;72266.09;5052425;28;20593;-74
2022/04/09 08:48:43;;;;;;;8.97;4.87;;;;;;;-145.69;100.00;72250.16;5052678;28;20199;-74
2022/04/09 08:51:10;;;;;;;14.43;3.93;;;;;;;-145.69;100.00;72286.00;5052627;28;20654;-74
2022/04/09 08:53:38;;;;;;;8.47;4.17;;;;;;;-145.69;100.00;72254.16;5052395;28;20570;-74
2022/04/09 08:56:06;;;;;;;8.90;4.50;;;;;;;-145.69;100.00;72230.25;5052733;28;20211;-74
2022/04/09 08:58:34;;;;;;;10.97;4.30;;;;;;;-145.69;100.00;72234.25;5052692;28;20249;-74
2022/04/09 09:01:00;;;;;;;11.27;4.40;;;;;;;-145.69;100.00;72289.97;5052593;28;20199;-73
2022/04/09 09:03:27;;;;;;;5.70;2.93;;;;;;;-145.69;100.00;72282.00;5055584;28;20203;-74
2022/04/09 09:05:53;;;;;;;6.83;3.80;;;;;;;-145.69;100.00;72319.81;5072422;28;20226;-74
2022/04/09 09:08:37;;;;;;;7.47;3.47;;;;;;;-145.69;100.00;72258.13;5072378;28;20195;-74
2022/04/09 09:11:03;;;;;;;9.10;4.23;;;;;;;-145.69;100.00;72246.19;5072449;28;20719;-75
2022/04/09 09:13:30;;;;;;;7.40;4.20;;;;;;;-145.69;100.00;72234.25;5072385;28;20230;-75
2022/04/09 09:15:57;;;;;;;6.60;3.60;;;;;;;-145.69;100.00;72166.56;5072681;28;20233;-74
2022/04/09 09:18:25;;;;;;;8.40;3.90;;;;;;;-145.69;100.00;72168.56;5072420;28;20203;-74
2022/04/09 09:20:53;;;;;;;7.73;3.60;;;;;;;-145.69;99.07;72090.94;5072307;28;20202;-75
2022/04/09 09:23:21;;;;;;;5.77;3.20;;;;;;;-145.69;99.12;72096.91;5072515;28;20206;-75
2022/04/09 09:25:51;;;;;;;8.93;3.33;;;;;;;-145.69;94.21;72098.91;5073940;28;20261;-75
2022/04/09 09:28:25;;;;;;;8.73;2.80;;;;;;;-145.69;95.87;72190.47;5074271;28;20566;-74
2022/04/09 09:30:52;;;;;;;10.00;3.40;;;;;;;-145.69;100.00;72242.22;5055963;28;20450;-74
2022/04/09 09:33:21;;;;;;;5.10;3.10;;;;;;;-145.69;99.89;72200.41;5057800;28;20548;-75
2022/04/09 09:35:52;;;;;;;8.07;3.30;;;;;;;-145.69;100.00;72182.50;5076269;28;20230;-75
2022/04/09 09:38:20;;;;;;;7.57;3.00;;;;;;;-145.69;100.00;72138.72;5076104;28;20611;-75
2022/04/09 09:40:46;;;;;;;8.03;2.90;;;;;;;-145.69;100.00;72158.63;5075741;28;20558;-75
2022/04/09 09:43:16;;;;;;;5.73;2.93;;;;;;;-145.69;100.00;72204.38;5075897;28;20218;-75
2022/04/09 09:45:43;;;;;;;7.30;2.97;;;;;;;-145.69;100.00;72192.44;5075684;28;20623;-75
2022/04/09 09:48:21;;;;;;;9.83;3.17;;;;;;;-145.69;100.00;72218.31;5075962;28;20202;-74
2022/04/09 09:50:48;;;;;;;10.20;3.00;;;;;;;-145.69;99.10;72146.69;5075562;28;20249;-75
2022/04/09 09:53:15;;;;;;;4.33;2.67;;;;;;;-145.69;98.64;72162.59;5075699;28;20214;-74
2022/04/09 09:55:43;;;;;;;7.97;3.00;;;;;;;-145.69;100.00;72164.59;5075655;28;20211;-74
2022/04/09 09:58:10;;;;;;;8.17;3.20;;;;;;;-145.69;100.00;72174.53;5075549;28;20257;-75
2022/04/09 10:00:38;;;;;;;6.27;3.57;;;;;;;-145.69;100.00;72190.47;5075777;28;20206;-75
2022/04/09 10:03:07;;;;;;;6.80;2.50;;;;;;;-145.69;99.45;72210.38;5075429;28;20202;-74
2022/04/09 10:05:37;;;;;;;7.53;2.33;;;;;;;-145.69;96.55;72220.31;5075363;28;20230;-75
2022/04/09 10:08:05;;;;;;;4.33;2.80;;;;;;;-145.69;98.72;72196.44;5075539;28;20206;-74
2022/04/09 10:10:35;;;;;;;3.90;2.13;;;;;;;-145.69;95.18;72230.25;5075200;28;20654;-74
2022/04/09 10:13:02;;;;;;;4.13;2.53;;;;;;;-145.69;100.00;72256.13;5075260;28;20597;-74
2022/04/09 10:15:29;;;;;;;7.07;2.90;;;;;;;-145.69;100.00;72240.22;5075335;28;20246;-76
2022/04/09 10:17:58;;;;;;;5.90;2.50;;;;;;;-145.69;100.00;72190.47;5075207;28;20207;-73
2022/04/09 10:20:26;;;;;;;6.10;2.70;;;;;;;-145.69;100.00;72188.47;5075252;28;20207;-74
2022/04/09 10:22:58;;;;;;;4.27;2.77;;;;;;;-145.69;100.00;72242.22;5074636;28;20735;-74
2022/04/09 10:25:27;;;;;;;8.93;2.97;;;;;;;-145.69;100.00;72242.22;5074927;28;20198;-74
2022/04/09 10:28:01;;;;;;;6.43;2.43;;;;;;;-145.69;99.56;72246.19;5075213;28;20203;-74
2022/04/09 10:30:29;;;;;;;11.40;3.03;;;;;;;-145.69;97.40;72230.25;5075066;28;20298;-74
2022/04/09 10:32:57;;;;;;;8.23;3.20;;;;;;;-145.69;100.00;72220.31;5074894;28;20230;-74
2022/04/09 10:35:26;;;;;;;9.43;4.05;;;;;;;-145.69;100.00;72192.44;5073868;28;20438;-74
2022/04/09 10:38:23;;;;;;;9.03;3.00;;;;;;;-145.69;100.00;72206.38;5073842;28;20206;-74
2022/04/09 10:41:27;;;;;;;6.33;2.67;;;;;;;-145.69;100.00;72230.25;5075013;28;20240;-74
2022/04/09 10:43:57;;;;;;;9.90;3.10;;;;;;;-145.69;100.00;72210.38;5074820;28;20253;-74
2022/04/09 10:46:31;;;;;;;8.17;2.97;;;;;;;-145.69;100.00;72154.63;5074773;28;20656;-74
2022/04/09 10:49:16;;;;;;;10.03;2.83;;;;;;;-145.69;98.92;72154.63;5074878;28;20224;-73
2022/04/09 10:52:11;;;;;;;7.23;2.90;;;;;;;-145.69;91.81;72128.75;5074667;28;20195;-74
2022/04/09 10:54:41;;;;;;;7.47;2.70;;;;;;;-145.69;93.46;72132.75;5054628;28;20302;-74
2022/04/09 10:57:11;;;;;;;3.43;2.27;;;;;;;-145.69;94.86;72154.63;5054600;28;20196;-74
2022/04/09 10:59:38;;;;;;;6.70;2.73;;;;;;;-145.69;94.17;72134.72;5054335;28;20204;-74
2022/04/09 11:02:05;;;;;;;6.60;2.57;;;;;;;-145.69;90.50;72082.97;5054364;28;20210;-74
2022/04/09 11:04:42;;;;;;;8.63;3.00;;;;;;;-145.69;88.00;72025.28;5054345;28;20203;-74
2022/04/09 11:07:14;;;;;;;7.40;2.00;;;;;;;-145.69;89.35;72015.31;5054040;28;20233;-74
2022/04/09 11:09:53;;;;;;;6.60;2.27;;;;;;;-145.69;88.26;72043.19;5054375;28;20203;-74
2022/04/09 11:12:24;;;;;;;4.90;1.40;;;;;;;-145.69;84.98;72118.81;5054357;28;20207;-74